Pflugerville's Hourly Summary for Wednesday, July 11, 2018
Hour Temp
(f)
RH
(%)
Solar Rad.
(MJ/m2)
Rainfall
(in)
Wind
(mph)
7/11/2018 12:00 AM 79 80 0 0 4.12
7/11/2018 1:00 AM 79 83 0 0 4.12
7/11/2018 2:00 AM 78 87 0 0 4.79
7/11/2018 3:00 AM 77 88 0 0 4.79
7/11/2018 4:00 AM 76 88 0 0 4.51
7/11/2018 5:00 AM 75 94 0 0 4.26
7/11/2018 6:00 AM 74 95 0.01 0 2.96
7/11/2018 7:00 AM 74 95 0.18 0 3.42
7/11/2018 8:00 AM 77 90 0.52 0 6.06
7/11/2018 9:00 AM 81 78 0.67 0 6.06
7/11/2018 10:00 AM 83 66 2.22 0 6.55
7/11/2018 11:00 AM 85 55 2.82 0 6.55
7/11/2018 12:00 PM 87 52 3.21 0 7.28
7/11/2018 1:00 PM 89 46 3.35 0 7.28
7/11/2018 2:00 PM 90 44 3.35 0 7.29
7/11/2018 3:00 PM 91 44 3.28 0 7.29
7/11/2018 4:00 PM 92 44 2.98 0 6.64
7/11/2018 5:00 PM 92 43 2.45 0 5.97
7/11/2018 6:00 PM 92 40 1.92 0 6.04
7/11/2018 7:00 PM 92 44 1.05 0 6.04
7/11/2018 8:00 PM 90 48 0.56 0 5.35
7/11/2018 9:00 PM 87 55 0.08 0 3.68
7/11/2018 10:00 PM 84 65 0 0 1.27
7/11/2018 11:00 PM 82 67 0 0 1.53
Data Summary 83 66 28.65 0.00 5.16